createdAt,value
2023-03-12T00:01:13.785Z,45.11
2023-03-12T00:04:20.319Z,45.09
2023-03-12T00:07:26.464Z,45.05
2023-03-12T00:10:31.191Z,44.77
2023-03-12T00:13:34.479Z,44.76
2023-03-12T00:16:37.647Z,44.57
2023-03-12T00:19:40.571Z,44.34
2023-03-12T00:22:44.380Z,44.12
2023-03-12T00:25:48.338Z,43.68
2023-03-12T00:28:52.616Z,43.97
2023-03-12T00:31:56.939Z,43.14
2023-03-12T00:35:01.110Z,42.78
2023-03-12T00:38:04.350Z,42.33
2023-03-12T00:41:07.738Z,41.30
2023-03-12T00:44:11.828Z,41.91
2023-03-12T00:47:14.965Z,41.60
2023-03-12T00:50:18.854Z,41.75
2023-03-12T00:53:22.650Z,41.39
2023-03-12T00:56:26.068Z,41.14
2023-03-12T00:59:29.381Z,40.52
2023-03-12T01:02:33.167Z,40.22
2023-03-12T01:05:38.386Z,40.06
2023-03-12T01:08:42.032Z,40.26
2023-03-12T01:11:45.088Z,39.44
2023-03-12T01:14:48.192Z,38.77
2023-03-12T01:17:51.811Z,38.47
2023-03-12T01:20:55.723Z,37.84
2023-03-12T01:23:59.349Z,37.76
2023-03-12T01:27:03.474Z,37.18
2023-03-12T01:30:07.634Z,37.25
2023-03-12T01:33:11.100Z,37.07
2023-03-12T01:36:22.091Z,36.89
2023-03-12T01:39:26.805Z,36.78
2023-03-12T01:42:30.375Z,36.99
2023-03-12T01:45:52.989Z,36.74
2023-03-12T01:49:04.443Z,36.66
2023-03-12T01:52:12.078Z,36.67
2023-03-12T01:55:26.157Z,35.92
2023-03-12T01:58:33.271Z,36.00
2023-03-12T02:01:36.568Z,35.94
2023-03-12T02:04:40.858Z,34.96
2023-03-12T02:07:45.236Z,35.54
2023-03-12T02:10:49.090Z,34.88
2023-03-12T02:13:53.210Z,35.67
2023-03-12T02:16:57.632Z,35.37
2023-03-12T02:20:13.076Z,34.34
2023-03-12T02:23:38.247Z,33.79
2023-03-12T02:26:41.862Z,35.94
2023-03-12T02:29:47.286Z,32.97
2023-03-12T02:32:52.698Z,31.76
2023-03-12T02:35:56.498Z,30.83
2023-03-12T02:39:01.654Z,30.88
2023-03-12T02:42:05.293Z,30.36
2023-03-12T02:45:08.741Z,29.90
2023-03-12T02:48:11.735Z,29.47
2023-03-12T02:51:14.927Z,29.31
2023-03-12T02:54:20.755Z,28.89
2023-03-12T02:57:24.881Z,28.99
2023-03-12T03:00:28.748Z,28.31
2023-03-12T03:03:31.871Z,27.94
2023-03-12T03:06:37.408Z,27.68
2023-03-12T03:09:41.737Z,26.85
2023-03-12T03:12:46.103Z,26.14
2023-03-12T03:15:50.258Z,26.50
2023-03-12T03:18:54.274Z,26.57
2023-03-12T03:21:58.108Z,26.42
2023-03-12T03:25:02.396Z,27.03
2023-03-12T03:28:06.233Z,26.46
2023-03-12T03:31:11.260Z,26.43
2023-03-12T03:34:16.736Z,26.08
2023-03-12T03:37:20.197Z,26.15
2023-03-12T03:40:23.874Z,26.15
2023-03-12T03:43:28.821Z,25.94
2023-03-12T03:46:32.845Z,25.93
2023-03-12T03:49:40.550Z,25.74
2023-03-12T03:52:44.612Z,25.82
2023-03-12T03:55:48.840Z,25.47
2023-03-12T03:58:52.260Z,25.58
2023-03-12T04:01:57.638Z,25.71
2023-03-12T04:05:01.718Z,25.70
2023-03-12T04:08:07.253Z,25.09
2023-03-12T04:11:19.210Z,25.06
2023-03-12T04:14:23.341Z,24.39
2023-03-12T04:17:26.715Z,24.03
2023-03-12T04:20:32.719Z,24.02
2023-03-12T04:23:36.788Z,24.13
2023-03-12T04:26:40.772Z,24.46
2023-03-12T04:29:45.862Z,24.21
2023-03-12T04:32:50.682Z,24.35
2023-03-12T04:35:54.861Z,24.35
2023-03-12T04:38:59.277Z,24.16
2023-03-12T04:42:07.674Z,23.35
2023-03-12T04:45:13.327Z,22.99
2023-03-12T04:48:21.001Z,23.06
2023-03-12T04:51:27.466Z,23.17
2023-03-12T04:54:32.536Z,23.08
2023-03-12T04:57:37.349Z,22.42
2023-03-12T05:00:42.181Z,22.27
2023-03-12T05:03:46.502Z,22.61
2023-03-12T05:06:50.667Z,22.25
2023-03-12T05:09:54.751Z,22.05
2023-03-12T05:12:59.362Z,21.82
2023-03-12T05:16:04.382Z,22.05
2023-03-12T05:19:08.623Z,21.96
2023-03-12T05:22:13.110Z,22.05
2023-03-12T05:25:17.661Z,22.20
2023-03-12T05:28:22.581Z,22.15
2023-03-12T05:31:26.713Z,22.23
2023-03-12T05:34:31.733Z,22.06
2023-03-12T05:37:37.110Z,21.85
2023-03-12T05:40:41.048Z,21.59
2023-03-12T05:43:44.587Z,21.86
2023-03-12T05:46:48.692Z,21.85
2023-03-12T05:49:53.549Z,21.70
2023-03-12T05:52:58.538Z,21.57
2023-03-12T05:56:07.574Z,21.33
2023-03-12T05:59:13.802Z,21.04
2023-03-12T06:02:17.918Z,21.14
2023-03-12T06:05:21.538Z,21.04
2023-03-12T06:08:26.169Z,20.89
2023-03-12T06:11:30.779Z,20.73
2023-03-12T06:14:35.819Z,20.62
2023-03-12T06:17:40.092Z,20.76
2023-03-12T06:20:44.159Z,20.41
2023-03-12T06:23:49.368Z,20.09
2023-03-12T06:27:17.568Z,19.86
2023-03-12T06:30:21.596Z,19.41
2023-03-12T06:33:24.822Z,19.42
2023-03-12T06:36:27.969Z,19.37
2023-03-12T06:39:31.707Z,19.03
2023-03-12T06:42:35.301Z,19.08
2023-03-12T06:45:38.774Z,18.53
2023-03-12T06:48:42.662Z,18.52
2023-03-12T06:51:45.701Z,17.93
2023-03-12T06:54:49.304Z,17.73
2023-03-12T06:57:52.888Z,17.55
2023-03-12T07:00:56.408Z,17.32
2023-03-12T07:04:00.303Z,17.37
2023-03-12T07:07:03.722Z,17.05
2023-03-12T07:10:07.518Z,16.72
2023-03-12T07:13:11.146Z,16.66
2023-03-12T07:16:14.305Z,16.88
2023-03-12T07:19:20.307Z,16.50
2023-03-12T07:22:23.673Z,16.39
2023-03-12T07:25:28.029Z,16.50
2023-03-12T07:28:31.660Z,16.40
2023-03-12T07:31:35.377Z,16.01
2023-03-12T07:34:38.649Z,15.90
2023-03-12T07:37:42.550Z,15.88
2023-03-12T07:40:45.664Z,15.90
2023-03-12T07:43:49.415Z,15.79
2023-03-12T07:46:53.476Z,15.33
2023-03-12T07:49:57.085Z,15.12
2023-03-12T07:53:00.695Z,14.88
2023-03-12T07:56:04.412Z,14.77
2023-03-12T07:59:08.223Z,13.95
2023-03-12T08:02:13.367Z,13.84
2023-03-12T08:05:17.357Z,13.62
2023-03-12T08:08:20.836Z,13.33
2023-03-12T08:11:24.338Z,13.19
2023-03-12T08:14:32.671Z,13.06
2023-03-12T08:17:35.771Z,13.01
2023-03-12T08:20:38.773Z,13.23
2023-03-12T08:23:41.863Z,13.01
2023-03-12T08:26:46.858Z,13.26
2023-03-12T08:29:50.435Z,12.87
2023-03-12T08:32:54.272Z,12.91
2023-03-12T08:35:58.676Z,12.72
2023-03-12T08:39:03.686Z,12.73
2023-03-12T08:42:08.612Z,12.89
2023-03-12T08:45:14.240Z,12.94
2023-03-12T08:48:18.679Z,13.05
2023-03-12T08:51:22.999Z,13.27
2023-03-12T08:54:26.163Z,13.48
2023-03-12T08:57:30.781Z,13.28
2023-03-12T09:00:35.029Z,13.34
2023-03-12T09:03:39.642Z,13.45
2023-03-12T09:06:44.230Z,13.44
2023-03-12T09:09:47.763Z,13.76
2023-03-12T09:12:51.549Z,14.38
2023-03-12T09:16:01.074Z,14.64
2023-03-12T09:19:05.172Z,15.06
2023-03-12T09:22:09.235Z,15.67
2023-03-12T09:25:13.336Z,16.10
2023-03-12T09:28:17.458Z,16.34
2023-03-12T09:31:21.352Z,16.72
2023-03-12T09:34:25.419Z,17.11
2023-03-12T09:37:29.219Z,17.51
2023-03-12T09:40:37.625Z,18.00
2023-03-12T09:43:50.248Z,18.03
2023-03-12T09:47:01.979Z,18.24
2023-03-12T09:57:15.334Z,19.43
2023-03-12T10:00:22.432Z,19.54
2023-03-12T10:03:37.753Z,19.72
2023-03-12T10:07:14.596Z,19.93
2023-03-12T10:10:41.074Z,20.59
2023-03-12T10:13:59.226Z,20.70
2023-03-12T10:17:20.938Z,20.73
2023-03-12T10:20:52.295Z,20.73
2023-03-12T10:24:17.798Z,20.82
2023-03-12T10:27:25.017Z,20.82
2023-03-12T10:30:31.257Z,20.84
2023-03-12T10:33:43.966Z,20.94
2023-03-12T10:36:47.994Z,21.16
2023-03-12T10:39:54.139Z,21.26
2023-03-12T10:42:58.036Z,21.08
2023-03-12T10:46:34.304Z,20.89
2023-03-12T10:49:38.514Z,21.01
2023-03-12T10:52:47.289Z,21.24
2023-03-12T10:56:01.052Z,20.99
2023-03-12T10:59:22.089Z,20.67
2023-03-12T11:02:37.308Z,20.51
2023-03-12T11:05:52.714Z,20.45
2023-03-12T11:09:19.633Z,20.42
2023-03-12T11:12:29.700Z,20.33
2023-03-12T11:15:42.974Z,20.33
2023-03-12T11:18:57.016Z,20.29
2023-03-12T11:22:09.074Z,20.46
2023-03-12T11:25:25.948Z,20.24
2023-03-12T11:28:40.353Z,20.35
2023-03-12T11:31:51.422Z,20.27
2023-03-12T11:34:55.970Z,20.33
2023-03-12T11:38:22.424Z,20.33
2023-03-12T11:41:53.505Z,20.53
2023-03-12T11:45:21.577Z,20.46
2023-03-12T11:48:41.759Z,20.72
2023-03-12T11:52:08.308Z,20.85
2023-03-12T11:55:31.196Z,20.87
2023-03-12T11:58:46.060Z,20.84
2023-03-12T12:02:34.779Z,20.88
2023-03-12T12:05:48.088Z,21.08
2023-03-12T12:09:26.424Z,21.14
2023-03-12T12:13:11.329Z,21.29
2023-03-12T12:16:35.675Z,21.58
2023-03-12T12:20:14.815Z,21.61
2023-03-12T12:23:35.462Z,21.64
2023-03-12T12:26:55.653Z,21.90
2023-03-12T12:30:27.065Z,21.99
2023-03-12T12:33:51.631Z,22.03
2023-03-12T12:37:13.977Z,22.16
2023-03-12T12:40:27.514Z,22.34
2023-03-12T12:43:39.004Z,22.19
2023-03-12T12:46:51.887Z,22.25
2023-03-12T12:50:03.718Z,22.47
2023-03-12T12:53:44.806Z,22.50
2023-03-12T12:56:56.821Z,22.64
2023-03-12T13:00:39.430Z,23.01
2023-03-12T13:03:48.490Z,23.03
2023-03-12T13:06:56.466Z,23.29
2023-03-12T13:10:08.677Z,23.57
2023-03-12T13:13:25.558Z,23.73
2023-03-12T13:16:46.904Z,23.96
2023-03-12T13:20:01.411Z,24.25
2023-03-12T13:23:21.495Z,24.46
2023-03-12T13:26:35.621Z,24.64
2023-03-12T13:29:46.618Z,24.90
2023-03-12T13:32:53.415Z,25.19
2023-03-12T13:36:14.718Z,25.40
2023-03-12T13:39:30.047Z,25.77
2023-03-12T13:42:43.301Z,26.24
2023-03-12T13:46:09.348Z,26.58
2023-03-12T13:49:15.967Z,26.79
2023-03-12T13:52:21.989Z,27.04
2023-03-12T13:55:29.947Z,27.00
2023-03-12T13:58:43.052Z,27.27
2023-03-12T14:01:54.827Z,27.43
2023-03-12T14:05:15.200Z,27.74
2023-03-12T14:08:35.906Z,28.01
2023-03-12T14:11:46.982Z,28.30
2023-03-12T14:15:24.801Z,28.58
2023-03-12T14:18:36.164Z,28.79
2023-03-12T14:21:47.366Z,29.06
2023-03-12T14:25:06.531Z,29.18
2023-03-12T14:28:25.868Z,29.50
2023-03-12T14:31:33.641Z,29.73
2023-03-12T14:34:51.551Z,29.92
2023-03-12T14:38:00.677Z,30.20
2023-03-12T14:41:15.681Z,30.10
2023-03-12T14:44:28.989Z,30.41
2023-03-12T14:47:45.285Z,30.64
2023-03-12T14:50:53.850Z,30.62
2023-03-12T14:54:06.422Z,30.72
2023-03-12T14:57:22.121Z,30.92
2023-03-12T15:00:30.526Z,30.88
2023-03-12T15:03:47.897Z,30.56
2023-03-12T15:07:05.850Z,30.64
2023-03-12T15:10:26.384Z,30.77
2023-03-12T15:13:33.205Z,30.94
2023-03-12T15:16:38.120Z,30.95
2023-03-12T15:19:41.495Z,30.88
2023-03-12T15:22:45.143Z,30.87
2023-03-12T15:25:48.824Z,30.87
2023-03-12T15:29:29.906Z,30.90
2023-03-12T15:32:36.506Z,30.92
2023-03-12T15:35:47.069Z,31.16
2023-03-12T15:38:57.513Z,31.22
2023-03-12T15:42:11.672Z,31.27
2023-03-12T15:45:25.640Z,31.59
2023-03-12T15:48:42.416Z,31.52
2023-03-12T15:52:05.785Z,31.59
2023-03-12T15:55:17.274Z,31.73
2023-03-12T15:58:36.157Z,31.75
2023-03-12T16:01:53.785Z,31.60
2023-03-12T16:04:59.422Z,31.71
2023-03-12T16:08:12.939Z,31.66
2023-03-12T16:11:25.483Z,31.69
2023-03-12T16:14:37.964Z,31.81
2023-03-12T16:17:43.233Z,31.85
2023-03-12T16:20:49.310Z,31.99
2023-03-12T16:23:54.716Z,31.98
2023-03-12T16:27:01.122Z,31.92
2023-03-12T16:30:07.943Z,32.12
2023-03-12T16:33:23.170Z,32.16
2023-03-12T16:36:29.100Z,32.36
2023-03-12T16:39:34.464Z,32.58
2023-03-12T16:42:40.024Z,32.48
2023-03-12T16:45:48.402Z,32.50
2023-03-12T16:48:54.659Z,32.54
2023-03-12T16:52:00.273Z,32.49
2023-03-12T16:55:06.066Z,32.43
2023-03-12T16:58:14.737Z,32.24
2023-03-12T17:01:23.062Z,32.13
2023-03-12T17:04:27.874Z,32.12
2023-03-12T17:07:32.802Z,32.12
2023-03-12T17:10:37.159Z,32.24
2023-03-12T17:13:42.692Z,32.29
2023-03-12T17:16:47.841Z,32.21
2023-03-12T17:19:56.142Z,32.07
2023-03-12T17:23:00.572Z,32.21
2023-03-12T17:26:06.231Z,32.27
2023-03-12T17:29:11.102Z,32.37
2023-03-12T17:32:15.436Z,32.40
2023-03-12T17:35:20.768Z,32.49
2023-03-12T17:38:25.308Z,32.95
2023-03-12T17:41:29.787Z,33.06
2023-03-12T17:44:36.195Z,33.19
2023-03-12T17:47:41.109Z,33.56
2023-03-12T17:50:46.891Z,33.68
2023-03-12T17:53:51.894Z,33.74
2023-03-12T17:56:56.643Z,33.64
2023-03-12T18:00:01.217Z,33.67
2023-03-12T18:03:16.042Z,33.74
2023-03-12T18:06:20.518Z,33.68
2023-03-12T18:09:24.806Z,33.59
2023-03-12T18:12:29.662Z,33.41
2023-03-12T18:15:35.074Z,33.29
2023-03-12T18:18:39.968Z,33.46
2023-03-12T18:21:44.800Z,33.58
2023-03-12T18:24:49.430Z,33.39
2023-03-12T18:27:56.663Z,33.39
2023-03-12T18:31:01.653Z,33.16
2023-03-12T18:34:06.889Z,33.10
2023-03-12T18:37:11.665Z,32.89
2023-03-12T18:40:16.828Z,32.83
2023-03-12T18:43:22.026Z,32.97
2023-03-12T18:46:26.994Z,32.80
2023-03-12T18:49:30.927Z,32.67
2023-03-12T18:52:36.200Z,32.54
2023-03-12T18:55:40.189Z,32.48
2023-03-12T18:58:44.616Z,32.08
2023-03-12T19:01:48.550Z,31.46
2023-03-12T19:04:55.946Z,31.32
2023-03-12T19:08:01.092Z,30.97
2023-03-12T19:11:14.230Z,30.88
2023-03-12T19:14:18.823Z,30.58
2023-03-12T19:17:25.203Z,30.17
2023-03-12T19:20:30.948Z,30.16
2023-03-12T19:23:40.478Z,29.95
2023-03-12T19:26:50.290Z,29.66
2023-03-12T19:30:00.633Z,29.45
2023-03-12T19:33:11.831Z,29.30
2023-03-12T19:36:21.562Z,28.85
2023-03-12T19:39:32.532Z,28.68
2023-03-12T19:42:43.517Z,28.85
2023-03-12T19:45:53.023Z,28.84
2023-03-12T19:49:02.848Z,28.44
2023-03-12T19:52:13.569Z,28.50
2023-03-12T19:55:24.869Z,28.40
2023-03-12T19:58:33.185Z,28.55
2023-03-12T20:01:44.279Z,28.35
2023-03-12T20:04:54.316Z,28.45
2023-03-12T20:08:01.706Z,28.81
2023-03-12T20:11:12.166Z,28.57
2023-03-12T20:14:21.531Z,28.48
2023-03-12T20:17:30.637Z,28.84
2023-03-12T20:20:40.493Z,28.92
2023-03-12T20:23:52.148Z,28.91
2023-03-12T20:27:01.032Z,29.05
2023-03-12T20:30:11.081Z,28.93
2023-03-12T20:33:20.302Z,29.04
2023-03-12T20:36:29.242Z,29.27
2023-03-12T20:39:37.940Z,29.36
2023-03-12T20:42:48.003Z,29.32
2023-03-12T20:45:58.119Z,29.47
2023-03-12T20:49:09.359Z,29.49
2023-03-12T20:52:18.791Z,29.92
2023-03-12T20:55:28.232Z,29.78
2023-03-12T20:58:38.819Z,29.86
2023-03-12T21:01:49.788Z,29.84
2023-03-12T21:05:00.253Z,29.77
2023-03-12T21:08:10.300Z,29.77
2023-03-12T21:11:21.181Z,29.87
2023-03-12T21:14:30.217Z,30.06
2023-03-12T21:17:41.606Z,30.09
2023-03-12T21:20:53.004Z,30.23
2023-03-12T21:24:02.032Z,30.41
2023-03-12T21:27:16.816Z,30.24
2023-03-12T21:30:29.435Z,30.10
2023-03-12T21:33:39.804Z,30.15
2023-03-12T21:36:48.596Z,30.20
2023-03-12T21:40:03.604Z,30.40
2023-03-12T21:43:13.824Z,30.44
2023-03-12T21:46:31.264Z,30.28
2023-03-12T21:49:44.082Z,30.32
2023-03-12T21:52:57.410Z,30.36
2023-03-12T21:56:10.851Z,30.64
2023-03-12T21:59:19.664Z,30.93
2023-03-12T22:02:29.219Z,30.88
2023-03-12T22:05:37.934Z,30.92
2023-03-12T22:08:46.979Z,31.14
2023-03-12T22:11:55.693Z,31.17
2023-03-12T22:15:05.245Z,31.18
2023-03-12T22:18:13.445Z,31.29
2023-03-12T22:21:25.870Z,31.28
2023-03-12T22:24:35.513Z,31.16
2023-03-12T22:27:45.146Z,31.49
2023-03-12T22:31:00.150Z,31.38
2023-03-12T22:34:09.159Z,31.61
2023-03-12T22:37:20.548Z,31.52
2023-03-12T22:40:29.668Z,31.73
2023-03-12T22:43:38.536Z,31.90
2023-03-12T22:46:48.586Z,31.75
2023-03-12T22:50:00.860Z,31.84
2023-03-12T22:53:11.017Z,31.80
2023-03-12T22:56:21.596Z,31.72
2023-03-12T22:59:31.558Z,31.64
2023-03-12T23:02:43.644Z,31.71
2023-03-12T23:05:55.950Z,31.72
2023-03-12T23:09:08.786Z,31.58
2023-03-12T23:12:14.995Z,31.74
2023-03-12T23:15:20.939Z,31.65
2023-03-12T23:18:24.753Z,31.49
2023-03-12T23:21:27.862Z,31.46
2023-03-12T23:24:32.857Z,31.26
2023-03-12T23:27:36.686Z,31.39
2023-03-12T23:30:40.836Z,31.21
2023-03-12T23:33:45.409Z,31.33
2023-03-12T23:36:51.550Z,31.53
2023-03-12T23:39:56.900Z,31.41
2023-03-12T23:43:01.289Z,31.52
2023-03-12T23:46:06.453Z,31.64
2023-03-12T23:49:11.602Z,31.48
2023-03-12T23:52:16.865Z,31.28
2023-03-12T23:55:24.448Z,31.06
2023-03-12T23:58:31.742Z,31.00
